sensor_id;sensor_type;location;lat;lon;timestamp;pressure;altitude;pressure_sealevel;temperature;humidity
16016;BME280;8112;53.592;10.184;2022-07-29T00:02:21;101712.03;;;14.94;100.00
16016;BME280;8112;53.592;10.184;2022-07-29T00:07:24;101714.97;;;14.90;100.00
16016;BME280;8112;53.592;10.184;2022-07-29T00:12:26;101714.31;;;14.86;100.00
16016;BME280;8112;53.592;10.184;2022-07-29T00:17:28;101712.97;;;14.79;100.00
16016;BME280;8112;53.592;10.184;2022-07-29T00:22:31;101716.22;;;14.84;100.00
16016;BME280;8112;53.592;10.184;2022-07-29T00:27:33;101699.22;;;14.72;100.00
16016;BME280;8112;53.592;10.184;2022-07-29T00:32:35;101698.13;;;14.60;100.00
16016;BME280;8112;53.592;10.184;2022-07-29T00:37:38;101709.88;;;14.56;100.00
16016;BME280;8112;53.592;10.184;2022-07-29T00:42:44;101701.84;;;14.58;100.00
16016;BME280;8112;53.592;10.184;2022-07-29T00:47:46;101690.84;;;14.49;100.00
16016;BME280;8112;53.592;10.184;2022-07-29T00:52:52;101692.06;;;14.44;100.00
16016;BME280;8112;53.592;10.184;2022-07-29T00:57:55;101686.28;;;14.37;100.00
16016;BME280;8112;53.592;10.184;2022-07-29T01:02:58;101692.22;;;14.26;100.00
16016;BME280;8112;53.592;10.184;2022-07-29T01:08:01;101685.75;;;14.16;100.00
16016;BME280;8112;53.592;10.184;2022-07-29T01:13:04;101681.22;;;14.18;100.00
16016;BME280;8112;53.592;10.184;2022-07-29T01:18:11;101671.00;;;14.26;100.00
16016;BME280;8112;53.592;10.184;2022-07-29T01:23:51;101664.19;;;14.22;100.00
16016;BME280;8112;53.592;10.184;2022-07-29T01:29:07;101671.78;;;14.28;100.00
16016;BME280;8112;53.592;10.184;2022-07-29T01:34:21;101656.03;;;14.25;100.00
16016;BME280;8112;53.592;10.184;2022-07-29T01:39:27;101646.56;;;14.21;100.00
16016;BME280;8112;53.592;10.184;2022-07-29T01:44:35;101644.31;;;14.15;100.00
16016;BME280;8112;53.592;10.184;2022-07-29T01:49:43;101645.81;;;14.19;100.00
16016;BME280;8112;53.592;10.184;2022-07-29T01:54:52;101651.13;;;14.19;100.00
16016;BME280;8112;53.592;10.184;2022-07-29T01:59:58;101637.78;;;14.20;100.00
16016;BME280;8112;53.592;10.184;2022-07-29T02:05:02;101633.13;;;14.24;100.00
16016;BME280;8112;53.592;10.184;2022-07-29T02:10:07;101629.53;;;14.25;100.00
16016;BME280;8112;53.592;10.184;2022-07-29T02:15:12;101624.72;;;14.32;100.00
16016;BME280;8112;53.592;10.184;2022-07-29T02:20:16;101626.88;;;14.25;100.00
16016;BME280;8112;53.592;10.184;2022-07-29T02:25:17;101619.13;;;14.22;100.00
16016;BME280;8112;53.592;10.184;2022-07-29T02:30:22;101622.81;;;14.19;100.00
16016;BME280;8112;53.592;10.184;2022-07-29T02:35:24;101620.81;;;14.23;100.00
16016;BME280;8112;53.592;10.184;2022-07-29T02:40:26;101614.38;;;14.13;100.00
16016;BME280;8112;53.592;10.184;2022-07-29T02:45:30;101614.00;;;14.19;100.00
16016;BME280;8112;53.592;10.184;2022-07-29T02:50:36;101611.16;;;14.22;100.00
16016;BME280;8112;53.592;10.184;2022-07-29T02:55:44;101613.44;;;14.14;100.00
16016;BME280;8112;53.592;10.184;2022-07-29T03:00:49;101608.69;;;14.19;100.00
16016;BME280;8112;53.592;10.184;2022-07-29T03:05:54;101598.47;;;14.13;100.00
16016;BME280;8112;53.592;10.184;2022-07-29T03:10:56;101597.34;;;14.17;100.00
16016;BME280;8112;53.592;10.184;2022-07-29T03:16:00;101596.09;;;14.08;100.00
16016;BME280;8112;53.592;10.184;2022-07-29T03:21:03;101597.25;;;14.18;100.00
16016;BME280;8112;53.592;10.184;2022-07-29T03:26:05;101599.59;;;14.23;100.00
16016;BME280;8112;53.592;10.184;2022-07-29T03:31:08;101592.41;;;14.25;100.00
16016;BME280;8112;53.592;10.184;2022-07-29T03:36:10;101592.88;;;14.17;100.00
16016;BME280;8112;53.592;10.184;2022-07-29T03:41:12;101583.06;;;14.19;100.00
16016;BME280;8112;53.592;10.184;2022-07-29T03:46:16;101579.16;;;14.25;100.00
16016;BME280;8112;53.592;10.184;2022-07-29T03:51:20;101582.75;;;14.24;100.00
16016;BME280;8112;53.592;10.184;2022-07-29T03:56:22;101586.28;;;14.24;100.00
16016;BME280;8112;53.592;10.184;2022-07-29T04:01:27;101581.81;;;14.25;100.00
16016;BME280;8112;53.592;10.184;2022-07-29T04:06:37;101583.16;;;14.32;100.00
16016;BME280;8112;53.592;10.184;2022-07-29T04:11:40;101589.78;;;14.39;100.00
16016;BME280;8112;53.592;10.184;2022-07-29T04:16:43;101591.59;;;14.39;100.00
16016;BME280;8112;53.592;10.184;2022-07-29T04:21:45;101583.25;;;14.45;100.00
16016;BME280;8112;53.592;10.184;2022-07-29T04:26:47;101583.13;;;14.61;100.00
16016;BME280;8112;53.592;10.184;2022-07-29T04:31:50;101579.00;;;14.72;100.00
16016;BME280;8112;53.592;10.184;2022-07-29T04:36:52;101578.31;;;14.82;100.00
16016;BME280;8112;53.592;10.184;2022-07-29T04:41:53;101586.94;;;14.86;100.00
16016;BME280;8112;53.592;10.184;2022-07-29T04:46:57;101585.28;;;14.98;100.00
16016;BME280;8112;53.592;10.184;2022-07-29T04:51:59;101588.19;;;15.08;100.00
16016;BME280;8112;53.592;10.184;2022-07-29T04:57:00;101583.94;;;15.33;100.00
16016;BME280;8112;53.592;10.184;2022-07-29T05:02:03;101585.81;;;15.58;100.00
16016;BME280;8112;53.592;10.184;2022-07-29T05:07:05;101579.88;;;15.95;100.00
16016;BME280;8112;53.592;10.184;2022-07-29T05:12:07;101584.06;;;15.85;100.00
16016;BME280;8112;53.592;10.184;2022-07-29T05:17:11;101592.59;;;15.90;100.00
16016;BME280;8112;53.592;10.184;2022-07-29T05:22:13;101594.97;;;16.07;100.00
16016;BME280;8112;53.592;10.184;2022-07-29T05:27:14;101589.66;;;16.33;100.00
16016;BME280;8112;53.592;10.184;2022-07-29T05:32:17;101591.50;;;16.70;100.00
16016;BME280;8112;53.592;10.184;2022-07-29T05:37:19;101598.47;;;17.10;100.00
16016;BME280;8112;53.592;10.184;2022-07-29T05:42:24;101602.34;;;17.42;100.00
16016;BME280;8112;53.592;10.184;2022-07-29T05:47:27;101603.31;;;17.16;100.00
16016;BME280;8112;53.592;10.184;2022-07-29T05:52:29;101600.84;;;17.02;100.00
16016;BME280;8112;53.592;10.184;2022-07-29T05:57:31;101601.97;;;16.98;100.00
16016;BME280;8112;53.592;10.184;2022-07-29T06:02:34;101607.41;;;17.33;100.00
16016;BME280;8112;53.592;10.184;2022-07-29T06:07:39;101604.56;;;18.31;100.00
16016;BME280;8112;53.592;10.184;2022-07-29T06:12:41;101595.97;;;18.50;100.00
16016;BME280;8112;53.592;10.184;2022-07-29T06:17:44;101584.53;;;18.48;100.00
16016;BME280;8112;53.592;10.184;2022-07-29T06:22:45;101593.06;;;18.53;100.00
16016;BME280;8112;53.592;10.184;2022-07-29T06:27:47;101589.03;;;18.47;100.00
16016;BME280;8112;53.592;10.184;2022-07-29T06:32:50;101589.75;;;18.49;100.00
16016;BME280;8112;53.592;10.184;2022-07-29T06:37:52;101601.31;;;18.50;100.00
16016;BME280;8112;53.592;10.184;2022-07-29T06:42:53;101602.13;;;18.73;100.00
16016;BME280;8112;53.592;10.184;2022-07-29T06:47:57;101590.09;;;18.79;100.00
16016;BME280;8112;53.592;10.184;2022-07-29T06:52:58;101595.63;;;19.54;100.00
16016;BME280;8112;53.592;10.184;2022-07-29T06:58:00;101595.69;;;19.85;100.00
16016;BME280;8112;53.592;10.184;2022-07-29T07:03:04;101576.84;;;19.44;100.00
16016;BME280;8112;53.592;10.184;2022-07-29T07:08:06;101584.38;;;19.39;100.00
16016;BME280;8112;53.592;10.184;2022-07-29T07:13:08;101585.97;;;19.63;100.00
16016;BME280;8112;53.592;10.184;2022-07-29T07:18:11;101575.41;;;19.61;100.00
16016;BME280;8112;53.592;10.184;2022-07-29T07:23:14;101578.25;;;19.48;100.00
16016;BME280;8112;53.592;10.184;2022-07-29T07:28:16;101577.56;;;19.46;100.00
16016;BME280;8112;53.592;10.184;2022-07-29T07:33:19;101567.84;;;19.45;100.00
16016;BME280;8112;53.592;10.184;2022-07-29T07:38:21;101564.44;;;19.43;100.00
16016;BME280;8112;53.592;10.184;2022-07-29T07:43:23;101563.09;;;19.49;100.00
16016;BME280;8112;53.592;10.184;2022-07-29T07:48:26;101560.00;;;19.54;100.00
16016;BME280;8112;53.592;10.184;2022-07-29T07:53:28;101563.28;;;19.78;100.00
16016;BME280;8112;53.592;10.184;2022-07-29T07:58:31;101560.88;;;19.97;100.00
16016;BME280;8112;53.592;10.184;2022-07-29T08:03:34;101566.81;;;20.00;100.00
16016;BME280;8112;53.592;10.184;2022-07-29T08:08:36;101564.19;;;20.10;100.00
16016;BME280;8112;53.592;10.184;2022-07-29T08:13:38;101565.91;;;20.52;100.00
16016;BME280;8112;53.592;10.184;2022-07-29T08:18:42;101559.31;;;21.17;100.00
16016;BME280;8112;53.592;10.184;2022-07-29T08:23:45;101564.31;;;21.89;100.00
16016;BME280;8112;53.592;10.184;2022-07-29T08:28:49;101558.44;;;22.79;100.00
16016;BME280;8112;53.592;10.184;2022-07-29T08:33:52;101562.22;;;23.23;100.00
16016;BME280;8112;53.592;10.184;2022-07-29T08:38:56;101559.03;;;22.45;100.00
16016;BME280;8112;53.592;10.184;2022-07-29T08:43:58;101561.00;;;22.99;100.00
16016;BME280;8112;53.592;10.184;2022-07-29T08:49:01;101556.00;;;23.40;100.00
16016;BME280;8112;53.592;10.184;2022-07-29T08:54:04;101550.34;;;23.43;100.00
16016;BME280;8112;53.592;10.184;2022-07-29T08:59:09;101545.59;;;23.63;100.00
16016;BME280;8112;53.592;10.184;2022-07-29T09:04:13;101541.53;;;23.86;100.00
16016;BME280;8112;53.592;10.184;2022-07-29T09:09:16;101535.72;;;24.33;100.00
16016;BME280;8112;53.592;10.184;2022-07-29T09:14:18;101526.03;;;24.49;100.00
16016;BME280;8112;53.592;10.184;2022-07-29T09:19:26;101530.53;;;25.00;100.00
16016;BME280;8112;53.592;10.184;2022-07-29T09:24:42;101545.22;;;25.22;100.00
16016;BME280;8112;53.592;10.184;2022-07-29T09:29:44;101529.56;;;25.51;100.00
16016;BME280;8112;53.592;10.184;2022-07-29T09:34:47;101536.22;;;25.80;100.00
16016;BME280;8112;53.592;10.184;2022-07-29T09:39:49;101536.13;;;26.13;93.89
16016;BME280;8112;53.592;10.184;2022-07-29T09:44:51;101523.50;;;26.13;80.04
16016;BME280;8112;53.592;10.184;2022-07-29T09:49:56;101527.50;;;24.95;90.25
16016;BME280;8112;53.592;10.184;2022-07-29T09:55:05;101533.06;;;24.42;95.26
16016;BME280;8112;53.592;10.184;2022-07-29T10:00:09;101528.41;;;24.09;100.00
16016;BME280;8112;53.592;10.184;2022-07-29T10:05:20;101526.44;;;23.93;100.00
16016;BME280;8112;53.592;10.184;2022-07-29T10:10:23;101532.09;;;24.51;100.00
16016;BME280;8112;53.592;10.184;2022-07-29T10:15:27;101526.44;;;24.71;95.11
16016;BME280;8112;53.592;10.184;2022-07-29T10:20:31;101517.25;;;24.47;91.67
16016;BME280;8112;53.592;10.184;2022-07-29T10:25:33;101514.63;;;24.12;95.26
16016;BME280;8112;53.592;10.184;2022-07-29T10:30:35;101509.44;;;23.92;98.70
16016;BME280;8112;53.592;10.184;2022-07-29T10:35:47;101508.78;;;23.90;98.74
16016;BME280;8112;53.592;10.184;2022-07-29T10:41:00;101508.19;;;24.05;97.27
16016;BME280;8112;53.592;10.184;2022-07-29T10:46:22;101504.75;;;24.29;96.81
16016;BME280;8112;53.592;10.184;2022-07-29T10:51:56;101496.91;;;24.61;89.92
16016;BME280;8112;53.592;10.184;2022-07-29T11:02:45;101490.31;;;24.39;93.82
16016;BME280;8112;53.592;10.184;2022-07-29T11:08:27;101489.84;;;24.60;96.17
16016;BME280;8112;53.592;10.184;2022-07-29T11:13:48;101486.66;;;24.65;95.40
16016;BME280;8112;53.592;10.184;2022-07-29T11:19:19;101482.34;;;24.80;94.84
16016;BME280;8112;53.592;10.184;2022-07-29T11:24:24;101488.75;;;25.29;90.76
16016;BME280;8112;53.592;10.184;2022-07-29T11:29:28;101479.06;;;25.68;87.76
16016;BME280;8112;53.592;10.184;2022-07-29T11:34:32;101473.94;;;26.38;90.10
16016;BME280;8112;53.592;10.184;2022-07-29T11:39:38;101479.78;;;26.73;84.33
16016;BME280;8112;53.592;10.184;2022-07-29T11:44:56;101465.53;;;27.41;78.09
16016;BME280;8112;53.592;10.184;2022-07-29T11:50:00;101454.00;;;27.77;65.24
16016;BME280;8112;53.592;10.184;2022-07-29T11:55:05;101449.28;;;27.41;66.56
16016;BME280;8112;53.592;10.184;2022-07-29T12:00:09;101443.84;;;27.26;64.43
16016;BME280;8112;53.592;10.184;2022-07-29T12:05:11;101447.31;;;27.20;67.61
16016;BME280;8112;53.592;10.184;2022-07-29T12:10:15;101442.66;;;26.90;66.94
16016;BME280;8112;53.592;10.184;2022-07-29T12:15:18;101434.78;;;27.03;61.54
16016;BME280;8112;53.592;10.184;2022-07-29T12:20:25;101424.34;;;27.30;63.25
16016;BME280;8112;53.592;10.184;2022-07-29T12:25:33;101432.72;;;27.74;62.28
16016;BME280;8112;53.592;10.184;2022-07-29T12:30:43;101426.25;;;27.60;63.66
16016;BME280;8112;53.592;10.184;2022-07-29T12:35:48;101425.94;;;27.10;57.56
16016;BME280;8112;53.592;10.184;2022-07-29T12:40:53;101429.28;;;27.12;59.26
16016;BME280;8112;53.592;10.184;2022-07-29T12:45:56;101431.47;;;26.93;58.85
16016;BME280;8112;53.592;10.184;2022-07-29T12:51:02;101419.69;;;27.09;57.53
16016;BME280;8112;53.592;10.184;2022-07-29T12:56:06;101430.91;;;27.21;55.70
16016;BME280;8112;53.592;10.184;2022-07-29T13:01:17;101424.88;;;26.96;59.17
16016;BME280;8112;53.592;10.184;2022-07-29T13:06:37;101422.19;;;26.96;58.01
16016;BME280;8112;53.592;10.184;2022-07-29T13:11:44;101416.88;;;27.17;57.59
16016;BME280;8112;53.592;10.184;2022-07-29T13:17:03;101408.75;;;26.79;68.48
16016;BME280;8112;53.592;10.184;2022-07-29T13:22:06;101411.53;;;26.71;78.19
16016;BME280;8112;53.592;10.184;2022-07-29T13:27:09;101412.13;;;26.81;84.02
16016;BME280;8112;53.592;10.184;2022-07-29T13:32:11;101409.75;;;26.63;88.82
16016;BME280;8112;53.592;10.184;2022-07-29T13:37:13;101409.03;;;26.46;90.63
16016;BME280;8112;53.592;10.184;2022-07-29T13:42:16;101407.44;;;26.28;92.61
16016;BME280;8112;53.592;10.184;2022-07-29T13:47:18;101412.88;;;25.49;94.43
16016;BME280;8112;53.592;10.184;2022-07-29T13:52:20;101410.47;;;25.54;98.93
16016;BME280;8112;53.592;10.184;2022-07-29T13:57:23;101422.25;;;25.69;97.30
16016;BME280;8112;53.592;10.184;2022-07-29T14:02:25;101410.59;;;25.69;94.59
16016;BME280;8112;53.592;10.184;2022-07-29T14:07:27;101412.50;;;25.52;99.87
16016;BME280;8112;53.592;10.184;2022-07-29T14:12:30;101417.25;;;25.25;97.94
16016;BME280;8112;53.592;10.184;2022-07-29T14:17:32;101402.00;;;24.84;100.00
16016;BME280;8112;53.592;10.184;2022-07-29T14:22:33;101406.88;;;24.80;100.00
16016;BME280;8112;53.592;10.184;2022-07-29T14:27:36;101405.84;;;24.81;100.00
16016;BME280;8112;53.592;10.184;2022-07-29T14:32:38;101403.31;;;24.63;100.00
16016;BME280;8112;53.592;10.184;2022-07-29T14:37:40;101405.47;;;24.59;100.00
16016;BME280;8112;53.592;10.184;2022-07-29T14:42:43;101410.84;;;24.43;100.00
16016;BME280;8112;53.592;10.184;2022-07-29T14:47:45;101398.53;;;24.24;100.00
16016;BME280;8112;53.592;10.184;2022-07-29T14:52:46;101404.69;;;23.99;100.00
16016;BME280;8112;53.592;10.184;2022-07-29T14:57:49;101390.25;;;24.09;100.00
16016;BME280;8112;53.592;10.184;2022-07-29T15:02:51;101390.66;;;24.63;100.00
16016;BME280;8112;53.592;10.184;2022-07-29T15:07:53;101387.50;;;25.66;100.00
16016;BME280;8112;53.592;10.184;2022-07-29T15:12:56;101391.47;;;25.79;100.00
16016;BME280;8112;53.592;10.184;2022-07-29T15:17:58;101386.56;;;25.51;100.00
16016;BME280;8112;53.592;10.184;2022-07-29T15:23:00;101384.53;;;25.44;100.00
16016;BME280;8112;53.592;10.184;2022-07-29T15:28:03;101378.34;;;25.75;100.00
16016;BME280;8112;53.592;10.184;2022-07-29T15:33:07;101372.84;;;25.60;100.00
16016;BME280;8112;53.592;10.184;2022-07-29T15:38:09;101364.59;;;25.62;100.00
16016;BME280;8112;53.592;10.184;2022-07-29T15:43:12;101357.25;;;25.71;100.00
16016;BME280;8112;53.592;10.184;2022-07-29T15:48:14;101371.09;;;25.19;100.00
16016;BME280;8112;53.592;10.184;2022-07-29T15:53:16;101375.16;;;24.49;100.00
16016;BME280;8112;53.592;10.184;2022-07-29T15:58:19;101371.56;;;25.31;100.00
16016;BME280;8112;53.592;10.184;2022-07-29T16:03:20;101361.47;;;26.37;99.89
16016;BME280;8112;53.592;10.184;2022-07-29T16:08:22;101354.50;;;26.19;98.33
16016;BME280;8112;53.592;10.184;2022-07-29T16:13:25;101348.16;;;26.03;100.00
16016;BME280;8112;53.592;10.184;2022-07-29T16:18:27;101343.31;;;25.67;100.00
16016;BME280;8112;53.592;10.184;2022-07-29T16:23:29;101342.25;;;26.08;100.00
16016;BME280;8112;53.592;10.184;2022-07-29T16:28:32;101341.72;;;25.33;100.00
16016;BME280;8112;53.592;10.184;2022-07-29T16:33:34;101347.56;;;24.39;100.00
16016;BME280;8112;53.592;10.184;2022-07-29T16:38:36;101341.44;;;24.03;100.00
16016;BME280;8112;53.592;10.184;2022-07-29T16:43:40;101345.94;;;23.95;100.00
16016;BME280;8112;53.592;10.184;2022-07-29T16:48:41;101338.44;;;23.63;100.00
16016;BME280;8112;53.592;10.184;2022-07-29T16:53:43;101336.69;;;23.46;100.00
16016;BME280;8112;53.592;10.184;2022-07-29T16:58:46;101347.38;;;23.64;100.00
16016;BME280;8112;53.592;10.184;2022-07-29T17:03:48;101342.75;;;23.48;100.00
16016;BME280;8112;53.592;10.184;2022-07-29T17:09:07;101337.13;;;23.33;100.00
16016;BME280;8112;53.592;10.184;2022-07-29T17:14:11;101337.16;;;23.41;100.00
16016;BME280;8112;53.592;10.184;2022-07-29T17:19:13;101329.53;;;23.28;100.00
16016;BME280;8112;53.592;10.184;2022-07-29T17:24:14;101322.34;;;23.37;100.00
16016;BME280;8112;53.592;10.184;2022-07-29T17:29:18;101329.31;;;23.21;100.00
16016;BME280;8112;53.592;10.184;2022-07-29T17:34:19;101330.13;;;22.87;100.00
16016;BME280;8112;53.592;10.184;2022-07-29T17:39:21;101336.00;;;22.64;100.00
16016;BME280;8112;53.592;10.184;2022-07-29T17:44:24;101336.41;;;22.52;100.00
16016;BME280;8112;53.592;10.184;2022-07-29T17:49:26;101339.41;;;22.48;100.00
16016;BME280;8112;53.592;10.184;2022-07-29T17:54:28;101335.47;;;22.25;100.00
16016;BME280;8112;53.592;10.184;2022-07-29T17:59:31;101338.22;;;22.15;100.00
16016;BME280;8112;53.592;10.184;2022-07-29T18:04:32;101338.91;;;22.17;100.00
16016;BME280;8112;53.592;10.184;2022-07-29T18:09:34;101334.75;;;22.04;100.00
16016;BME280;8112;53.592;10.184;2022-07-29T18:14:37;101340.03;;;21.96;100.00
16016;BME280;8112;53.592;10.184;2022-07-29T18:19:39;101331.94;;;21.78;100.00
16016;BME280;8112;53.592;10.184;2022-07-29T18:24:41;101328.19;;;21.71;100.00
16016;BME280;8112;53.592;10.184;2022-07-29T18:29:44;101312.88;;;21.53;100.00
16016;BME280;8112;53.592;10.184;2022-07-29T18:34:46;101315.47;;;21.35;100.00
16016;BME280;8112;53.592;10.184;2022-07-29T18:39:47;101320.44;;;21.30;100.00
16016;BME280;8112;53.592;10.184;2022-07-29T18:44:51;101324.28;;;21.17;100.00
16016;BME280;8112;53.592;10.184;2022-07-29T18:49:54;101324.19;;;21.09;100.00
16016;BME280;8112;53.592;10.184;2022-07-29T18:54:55;101326.47;;;20.94;100.00
16016;BME280;8112;53.592;10.184;2022-07-29T18:59:58;101323.09;;;20.82;100.00
16016;BME280;8112;53.592;10.184;2022-07-29T19:05:00;101328.31;;;20.74;100.00
16016;BME280;8112;53.592;10.184;2022-07-29T19:10:03;101324.09;;;20.61;100.00
16016;BME280;8112;53.592;10.184;2022-07-29T19:15:07;101339.06;;;20.44;100.00
16016;BME280;8112;53.592;10.184;2022-07-29T19:20:10;101338.47;;;20.41;100.00
16016;BME280;8112;53.592;10.184;2022-07-29T19:25:12;101343.13;;;20.39;100.00
16016;BME280;8112;53.592;10.184;2022-07-29T19:30:15;101345.94;;;20.27;100.00
16016;BME280;8112;53.592;10.184;2022-07-29T19:35:17;101348.88;;;20.14;100.00
16016;BME280;8112;53.592;10.184;2022-07-29T19:40:27;101370.28;;;20.04;100.00
16016;BME280;8112;53.592;10.184;2022-07-29T19:45:31;101371.47;;;19.90;100.00
16016;BME280;8112;53.592;10.184;2022-07-29T19:50:33;101370.63;;;19.90;100.00
16016;BME280;8112;53.592;10.184;2022-07-29T19:55:35;101372.16;;;19.83;100.00
16016;BME280;8112;53.592;10.184;2022-07-29T20:00:38;101370.03;;;19.76;100.00
16016;BME280;8112;53.592;10.184;2022-07-29T20:05:39;101367.44;;;19.65;100.00
16016;BME280;8112;53.592;10.184;2022-07-29T20:10:41;101358.25;;;19.58;100.00
16016;BME280;8112;53.592;10.184;2022-07-29T20:15:44;101351.94;;;19.49;100.00
16016;BME280;8112;53.592;10.184;2022-07-29T20:20:46;101357.66;;;19.44;100.00
16016;BME280;8112;53.592;10.184;2022-07-29T20:25:49;101355.97;;;19.43;100.00
16016;BME280;8112;53.592;10.184;2022-07-29T20:30:52;101357.50;;;19.46;100.00
16016;BME280;8112;53.592;10.184;2022-07-29T20:35:54;101361.59;;;19.40;100.00
16016;BME280;8112;53.592;10.184;2022-07-29T20:40:56;101368.88;;;19.38;100.00
16016;BME280;8112;53.592;10.184;2022-07-29T20:45:59;101347.06;;;19.33;100.00
16016;BME280;8112;53.592;10.184;2022-07-29T20:51:01;101374.41;;;19.46;100.00
16016;BME280;8112;53.592;10.184;2022-07-29T20:56:03;101365.28;;;19.49;100.00
16016;BME280;8112;53.592;10.184;2022-07-29T21:01:06;101366.81;;;19.51;100.00
16016;BME280;8112;53.592;10.184;2022-07-29T21:06:09;101362.63;;;19.49;100.00
16016;BME280;8112;53.592;10.184;2022-07-29T21:11:10;101367.81;;;19.50;100.00
16016;BME280;8112;53.592;10.184;2022-07-29T21:16:14;101373.03;;;19.52;100.00
16016;BME280;8112;53.592;10.184;2022-07-29T21:21:18;101375.28;;;19.57;100.00
16016;BME280;8112;53.592;10.184;2022-07-29T21:26:19;101372.06;;;19.53;100.00
16016;BME280;8112;53.592;10.184;2022-07-29T21:31:22;101373.88;;;19.52;100.00
16016;BME280;8112;53.592;10.184;2022-07-29T21:36:26;101376.50;;;19.43;100.00
16016;BME280;8112;53.592;10.184;2022-07-29T21:41:28;101376.50;;;19.43;100.00
16016;BME280;8112;53.592;10.184;2022-07-29T21:46:31;101365.38;;;19.37;100.00
16016;BME280;8112;53.592;10.184;2022-07-29T21:51:32;101382.97;;;19.40;100.00
16016;BME280;8112;53.592;10.184;2022-07-29T21:56:34;101367.44;;;19.34;100.00
16016;BME280;8112;53.592;10.184;2022-07-29T22:01:37;101361.31;;;19.43;100.00
16016;BME280;8112;53.592;10.184;2022-07-29T22:06:39;101367.44;;;19.34;100.00
16016;BME280;8112;53.592;10.184;2022-07-29T22:11:41;101363.25;;;19.31;100.00
16016;BME280;8112;53.592;10.184;2022-07-29T22:16:44;101377.38;;;19.22;100.00
16016;BME280;8112;53.592;10.184;2022-07-29T22:21:46;101376.06;;;19.16;100.00
16016;BME280;8112;53.592;10.184;2022-07-29T22:26:48;101370.66;;;19.06;100.00
16016;BME280;8112;53.592;10.184;2022-07-29T22:31:51;101379.94;;;19.02;100.00
16016;BME280;8112;53.592;10.184;2022-07-29T22:36:52;101371.44;;;18.97;100.00
16016;BME280;8112;53.592;10.184;2022-07-29T22:41:54;101369.13;;;19.04;100.00
16016;BME280;8112;53.592;10.184;2022-07-29T22:46:58;101363.78;;;19.04;100.00
16016;BME280;8112;53.592;10.184;2022-07-29T22:51:59;101366.94;;;18.98;100.00
16016;BME280;8112;53.592;10.184;2022-07-29T22:57:01;101357.75;;;18.90;100.00
16016;BME280;8112;53.592;10.184;2022-07-29T23:02:04;101359.50;;;18.80;100.00
16016;BME280;8112;53.592;10.184;2022-07-29T23:07:06;101358.34;;;18.73;100.00
16016;BME280;8112;53.592;10.184;2022-07-29T23:12:08;101347.59;;;18.63;100.00
16016;BME280;8112;53.592;10.184;2022-07-29T23:17:11;101342.34;;;18.61;100.00
16016;BME280;8112;53.592;10.184;2022-07-29T23:22:13;101345.41;;;18.57;100.00
16016;BME280;8112;53.592;10.184;2022-07-29T23:27:15;101348.75;;;18.49;100.00
16016;BME280;8112;53.592;10.184;2022-07-29T23:32:18;101346.91;;;18.49;100.00
16016;BME280;8112;53.592;10.184;2022-07-29T23:37:20;101349.06;;;18.56;100.00
16016;BME280;8112;53.592;10.184;2022-07-29T23:42:22;101349.81;;;18.58;100.00
16016;BME280;8112;53.592;10.184;2022-07-29T23:47:25;101354.47;;;18.65;100.00
16016;BME280;8112;53.592;10.184;2022-07-29T23:52:28;101345.50;;;18.66;100.00
16016;BME280;8112;53.592;10.184;2022-07-29T23:57:30;101347.97;;;18.58;100.00
